sensor_id;sensor_type;location;lat;lon;timestamp;P1;durP1;ratioP1;P2;durP2;ratioP2
37677;SDS011;23517;50.390;8.616;2023-12-29T00:00:39;1.05;;;0.73;;
37677;SDS011;23517;50.390;8.616;2023-12-29T00:03:06;2.03;;;0.75;;
37677;SDS011;23517;50.390;8.616;2023-12-29T00:05:33;0.90;;;0.73;;
37677;SDS011;23517;50.390;8.616;2023-12-29T00:08:00;0.90;;;0.80;;
37677;SDS011;23517;50.390;8.616;2023-12-29T00:10:27;1.20;;;0.90;;
37677;SDS011;23517;50.390;8.616;2023-12-29T00:12:53;1.25;;;0.90;;
37677;SDS011;23517;50.390;8.616;2023-12-29T00:15:20;0.80;;;0.80;;
37677;SDS011;23517;50.390;8.616;2023-12-29T00:17:47;2.75;;;1.17;;
37677;SDS011;23517;50.390;8.616;2023-12-29T00:20:14;0.90;;;0.70;;
37677;SDS011;23517;50.390;8.616;2023-12-29T00:22:59;1.00;;;0.80;;
37677;SDS011;23517;50.390;8.616;2023-12-29T00:25:25;1.10;;;1.00;;
37677;SDS011;23517;50.390;8.616;2023-12-29T00:27:52;2.22;;;1.02;;
37677;SDS011;23517;50.390;8.616;2023-12-29T00:30:18;1.25;;;0.90;;
37677;SDS011;23517;50.390;8.616;2023-12-29T00:32:46;0.93;;;0.90;;
37677;SDS011;23517;50.390;8.616;2023-12-29T00:35:13;2.08;;;1.20;;
37677;SDS011;23517;50.390;8.616;2023-12-29T00:37:40;1.17;;;0.95;;
37677;SDS011;23517;50.390;8.616;2023-12-29T00:40:07;0.90;;;0.88;;
37677;SDS011;23517;50.390;8.616;2023-12-29T00:42:35;2.35;;;0.88;;
37677;SDS011;23517;50.390;8.616;2023-12-29T00:45:02;1.48;;;1.23;;
37677;SDS011;23517;50.390;8.616;2023-12-29T00:47:30;1.15;;;1.00;;
37677;SDS011;23517;50.390;8.616;2023-12-29T00:49:57;1.08;;;0.98;;
37677;SDS011;23517;50.390;8.616;2023-12-29T00:52:23;1.10;;;1.00;;
37677;SDS011;23517;50.390;8.616;2023-12-29T00:54:50;1.30;;;1.00;;
37677;SDS011;23517;50.390;8.616;2023-12-29T00:57:17;1.70;;;1.17;;
37677;SDS011;23517;50.390;8.616;2023-12-29T00:59:46;0.80;;;0.80;;
37677;SDS011;23517;50.390;8.616;2023-12-29T01:02:13;1.30;;;1.20;;
37677;SDS011;23517;50.390;8.616;2023-12-29T01:04:40;1.52;;;1.10;;
37677;SDS011;23517;50.390;8.616;2023-12-29T01:07:07;1.27;;;1.17;;
37677;SDS011;23517;50.390;8.616;2023-12-29T01:09:37;1.13;;;0.90;;
37677;SDS011;23517;50.390;8.616;2023-12-29T01:12:06;0.93;;;0.80;;
37677;SDS011;23517;50.390;8.616;2023-12-29T01:14:33;1.08;;;0.90;;
37677;SDS011;23517;50.390;8.616;2023-12-29T01:17:00;1.83;;;1.10;;
37677;SDS011;23517;50.390;8.616;2023-12-29T01:19:27;1.40;;;1.20;;
37677;SDS011;23517;50.390;8.616;2023-12-29T01:21:53;3.45;;;1.15;;
37677;SDS011;23517;50.390;8.616;2023-12-29T01:24:20;3.53;;;1.20;;
37677;SDS011;23517;50.390;8.616;2023-12-29T01:26:58;2.13;;;1.20;;
37677;SDS011;23517;50.390;8.616;2023-12-29T01:29:25;1.35;;;1.00;;
37677;SDS011;23517;50.390;8.616;2023-12-29T01:31:51;1.15;;;1.05;;
37677;SDS011;23517;50.390;8.616;2023-12-29T01:34:18;2.55;;;1.40;;
37677;SDS011;23517;50.390;8.616;2023-12-29T01:36:45;2.75;;;1.00;;
37677;SDS011;23517;50.390;8.616;2023-12-29T01:39:11;1.15;;;0.90;;
37677;SDS011;23517;50.390;8.616;2023-12-29T01:41:38;1.67;;;1.20;;
37677;SDS011;23517;50.390;8.616;2023-12-29T01:44:29;1.83;;;1.23;;
37677;SDS011;23517;50.390;8.616;2023-12-29T01:46:56;3.70;;;1.08;;
37677;SDS011;23517;50.390;8.616;2023-12-29T01:49:27;0.88;;;0.80;;
37677;SDS011;23517;50.390;8.616;2023-12-29T01:51:58;1.73;;;1.20;;
37677;SDS011;23517;50.390;8.616;2023-12-29T01:54:27;2.28;;;1.10;;
37677;SDS011;23517;50.390;8.616;2023-12-29T01:57:00;2.17;;;1.00;;
37677;SDS011;23517;50.390;8.616;2023-12-29T01:59:29;1.58;;;1.10;;
37677;SDS011;23517;50.390;8.616;2023-12-29T02:01:57;2.45;;;1.00;;
37677;SDS011;23517;50.390;8.616;2023-12-29T02:04:24;1.67;;;1.10;;
37677;SDS011;23517;50.390;8.616;2023-12-29T02:06:53;1.63;;;1.08;;
37677;SDS011;23517;50.390;8.616;2023-12-29T02:09:21;1.27;;;0.90;;
37677;SDS011;23517;50.390;8.616;2023-12-29T02:11:48;1.50;;;1.20;;
37677;SDS011;23517;50.390;8.616;2023-12-29T02:14:15;5.25;;;1.10;;
37677;SDS011;23517;50.390;8.616;2023-12-29T02:22:12;2.50;;;1.20;;
37677;SDS011;23517;50.390;8.616;2023-12-29T02:24:40;2.22;;;1.17;;
37677;SDS011;23517;50.390;8.616;2023-12-29T02:27:26;1.88;;;1.20;;
37677;SDS011;23517;50.390;8.616;2023-12-29T02:30:08;1.55;;;1.00;;
37677;SDS011;23517;50.390;8.616;2023-12-29T02:32:44;1.50;;;1.02;;
37677;SDS011;23517;50.390;8.616;2023-12-29T02:35:14;2.10;;;1.02;;
37677;SDS011;23517;50.390;8.616;2023-12-29T02:37:47;1.30;;;1.00;;
37677;SDS011;23517;50.390;8.616;2023-12-29T02:40:14;2.47;;;1.42;;
37677;SDS011;23517;50.390;8.616;2023-12-29T02:42:49;4.32;;;1.30;;
37677;SDS011;23517;50.390;8.616;2023-12-29T02:45:16;2.92;;;1.10;;
37677;SDS011;23517;50.390;8.616;2023-12-29T02:47:44;4.38;;;1.25;;
37677;SDS011;23517;50.390;8.616;2023-12-29T02:50:17;3.03;;;1.10;;
37677;SDS011;23517;50.390;8.616;2023-12-29T02:52:43;2.13;;;1.10;;
37677;SDS011;23517;50.390;8.616;2023-12-29T02:55:10;1.98;;;1.17;;
37677;SDS011;23517;50.390;8.616;2023-12-29T02:57:38;5.47;;;1.40;;
37677;SDS011;23517;50.390;8.616;2023-12-29T03:00:05;4.45;;;1.15;;
37677;SDS011;23517;50.390;8.616;2023-12-29T03:02:33;2.67;;;1.30;;
37677;SDS011;23517;50.390;8.616;2023-12-29T03:05:00;6.00;;;1.17;;
37677;SDS011;23517;50.390;8.616;2023-12-29T03:07:27;5.32;;;1.20;;
37677;SDS011;23517;50.390;8.616;2023-12-29T03:09:53;3.55;;;1.27;;
37677;SDS011;23517;50.390;8.616;2023-12-29T03:12:20;2.33;;;1.20;;
37677;SDS011;23517;50.390;8.616;2023-12-29T03:14:49;4.10;;;1.10;;
37677;SDS011;23517;50.390;8.616;2023-12-29T03:17:15;5.05;;;0.90;;
37677;SDS011;23517;50.390;8.616;2023-12-29T03:19:42;4.90;;;1.25;;
37677;SDS011;23517;50.390;8.616;2023-12-29T03:22:09;2.55;;;1.00;;
37677;SDS011;23517;50.390;8.616;2023-12-29T03:24:36;3.63;;;1.27;;
37677;SDS011;23517;50.390;8.616;2023-12-29T03:27:06;3.20;;;1.27;;
37677;SDS011;23517;50.390;8.616;2023-12-29T03:29:33;4.18;;;1.20;;
37677;SDS011;23517;50.390;8.616;2023-12-29T03:32:00;4.25;;;1.30;;
37677;SDS011;23517;50.390;8.616;2023-12-29T03:34:27;2.50;;;1.00;;
37677;SDS011;23517;50.390;8.616;2023-12-29T03:36:53;3.92;;;1.20;;
37677;SDS011;23517;50.390;8.616;2023-12-29T03:39:20;3.30;;;1.38;;
37677;SDS011;23517;50.390;8.616;2023-12-29T03:41:47;3.00;;;1.10;;
37677;SDS011;23517;50.390;8.616;2023-12-29T03:44:14;4.07;;;1.23;;
37677;SDS011;23517;50.390;8.616;2023-12-29T03:46:41;4.18;;;0.90;;
37677;SDS011;23517;50.390;8.616;2023-12-29T03:49:08;3.10;;;1.15;;
37677;SDS011;23517;50.390;8.616;2023-12-29T03:51:40;3.75;;;1.00;;
37677;SDS011;23517;50.390;8.616;2023-12-29T03:54:07;3.03;;;1.10;;
37677;SDS011;23517;50.390;8.616;2023-12-29T03:56:34;1.77;;;1.20;;
37677;SDS011;23517;50.390;8.616;2023-12-29T03:59:01;1.90;;;1.20;;
37677;SDS011;23517;50.390;8.616;2023-12-29T04:01:28;1.58;;;1.13;;
37677;SDS011;23517;50.390;8.616;2023-12-29T04:03:55;5.13;;;1.48;;
37677;SDS011;23517;50.390;8.616;2023-12-29T04:06:22;1.38;;;1.17;;
37677;SDS011;23517;50.390;8.616;2023-12-29T04:08:48;1.13;;;1.00;;
37677;SDS011;23517;50.390;8.616;2023-12-29T04:11:15;1.73;;;1.05;;
37677;SDS011;23517;50.390;8.616;2023-12-29T04:13:42;4.03;;;1.27;;
37677;SDS011;23517;50.390;8.616;2023-12-29T04:16:09;4.70;;;1.45;;
37677;SDS011;23517;50.390;8.616;2023-12-29T04:18:35;2.38;;;1.20;;
37677;SDS011;23517;50.390;8.616;2023-12-29T04:21:02;5.82;;;1.20;;
37677;SDS011;23517;50.390;8.616;2023-12-29T04:23:29;3.45;;;1.45;;
37677;SDS011;23517;50.390;8.616;2023-12-29T04:25:56;3.25;;;1.45;;
37677;SDS011;23517;50.390;8.616;2023-12-29T04:28:23;3.38;;;1.60;;
37677;SDS011;23517;50.390;8.616;2023-12-29T04:30:51;4.75;;;2.17;;
37677;SDS011;23517;50.390;8.616;2023-12-29T04:33:18;4.60;;;1.55;;
37677;SDS011;23517;50.390;8.616;2023-12-29T04:35:45;1.98;;;1.10;;
37677;SDS011;23517;50.390;8.616;2023-12-29T04:38:11;4.13;;;1.20;;
37677;SDS011;23517;50.390;8.616;2023-12-29T04:40:38;3.38;;;1.30;;
37677;SDS011;23517;50.390;8.616;2023-12-29T04:43:05;2.50;;;1.38;;
37677;SDS011;23517;50.390;8.616;2023-12-29T04:45:31;3.28;;;1.08;;
37677;SDS011;23517;50.390;8.616;2023-12-29T04:47:58;3.53;;;1.17;;
37677;SDS011;23517;50.390;8.616;2023-12-29T04:50:25;6.55;;;1.25;;
37677;SDS011;23517;50.390;8.616;2023-12-29T04:52:52;3.58;;;1.40;;
37677;SDS011;23517;50.390;8.616;2023-12-29T04:55:19;4.55;;;1.25;;
37677;SDS011;23517;50.390;8.616;2023-12-29T04:57:46;5.00;;;1.40;;
37677;SDS011;23517;50.390;8.616;2023-12-29T05:00:13;3.40;;;1.65;;
37677;SDS011;23517;50.390;8.616;2023-12-29T05:02:40;5.70;;;1.20;;
37677;SDS011;23517;50.390;8.616;2023-12-29T05:05:07;2.13;;;1.10;;
37677;SDS011;23517;50.390;8.616;2023-12-29T05:07:34;2.75;;;1.20;;
37677;SDS011;23517;50.390;8.616;2023-12-29T05:10:01;2.85;;;1.17;;
37677;SDS011;23517;50.390;8.616;2023-12-29T05:12:28;4.35;;;1.23;;
37677;SDS011;23517;50.390;8.616;2023-12-29T05:14:56;2.97;;;1.23;;
37677;SDS011;23517;50.390;8.616;2023-12-29T05:17:22;3.05;;;1.20;;
37677;SDS011;23517;50.390;8.616;2023-12-29T05:19:49;6.07;;;1.60;;
37677;SDS011;23517;50.390;8.616;2023-12-29T05:22:16;2.38;;;1.15;;
37677;SDS011;23517;50.390;8.616;2023-12-29T05:24:44;4.10;;;1.20;;
37677;SDS011;23517;50.390;8.616;2023-12-29T05:27:11;4.15;;;1.30;;
37677;SDS011;23517;50.390;8.616;2023-12-29T05:29:38;2.42;;;1.30;;
37677;SDS011;23517;50.390;8.616;2023-12-29T05:32:05;4.07;;;1.20;;
37677;SDS011;23517;50.390;8.616;2023-12-29T05:34:32;3.97;;;1.20;;
37677;SDS011;23517;50.390;8.616;2023-12-29T05:36:59;3.20;;;0.98;;
37677;SDS011;23517;50.390;8.616;2023-12-29T05:39:26;3.10;;;1.33;;
37677;SDS011;23517;50.390;8.616;2023-12-29T05:41:53;6.40;;;1.20;;
37677;SDS011;23517;50.390;8.616;2023-12-29T05:44:19;6.68;;;1.30;;
37677;SDS011;23517;50.390;8.616;2023-12-29T05:46:46;5.13;;;1.40;;
37677;SDS011;23517;50.390;8.616;2023-12-29T05:49:13;5.32;;;1.13;;
37677;SDS011;23517;50.390;8.616;2023-12-29T05:51:40;4.18;;;1.38;;
37677;SDS011;23517;50.390;8.616;2023-12-29T05:54:07;2.53;;;1.13;;
37677;SDS011;23517;50.390;8.616;2023-12-29T05:56:34;3.25;;;1.20;;
37677;SDS011;23517;50.390;8.616;2023-12-29T05:59:00;2.17;;;1.00;;
37677;SDS011;23517;50.390;8.616;2023-12-29T06:01:27;5.80;;;1.70;;
37677;SDS011;23517;50.390;8.616;2023-12-29T06:03:54;3.13;;;1.23;;
37677;SDS011;23517;50.390;8.616;2023-12-29T06:06:21;8.30;;;1.40;;
37677;SDS011;23517;50.390;8.616;2023-12-29T06:08:48;4.90;;;1.42;;
37677;SDS011;23517;50.390;8.616;2023-12-29T06:11:15;2.75;;;1.00;;
37677;SDS011;23517;50.390;8.616;2023-12-29T06:13:42;7.32;;;1.10;;
37677;SDS011;23517;50.390;8.616;2023-12-29T06:16:09;5.07;;;1.55;;
37677;SDS011;23517;50.390;8.616;2023-12-29T06:18:36;4.13;;;1.35;;
37677;SDS011;23517;50.390;8.616;2023-12-29T06:21:03;4.00;;;1.05;;
37677;SDS011;23517;50.390;8.616;2023-12-29T06:23:30;5.00;;;1.50;;
37677;SDS011;23517;50.390;8.616;2023-12-29T06:25:56;4.72;;;1.27;;
37677;SDS011;23517;50.390;8.616;2023-12-29T06:28:23;4.82;;;1.42;;
37677;SDS011;23517;50.390;8.616;2023-12-29T06:30:50;5.78;;;1.38;;
37677;SDS011;23517;50.390;8.616;2023-12-29T06:33:17;3.55;;;1.35;;
37677;SDS011;23517;50.390;8.616;2023-12-29T06:35:47;3.58;;;1.08;;
37677;SDS011;23517;50.390;8.616;2023-12-29T06:38:14;3.30;;;1.52;;
37677;SDS011;23517;50.390;8.616;2023-12-29T06:40:41;7.22;;;1.50;;
37677;SDS011;23517;50.390;8.616;2023-12-29T06:43:07;3.17;;;1.00;;
37677;SDS011;23517;50.390;8.616;2023-12-29T06:45:34;3.97;;;1.80;;
37677;SDS011;23517;50.390;8.616;2023-12-29T06:48:01;6.13;;;1.10;;
37677;SDS011;23517;50.390;8.616;2023-12-29T06:50:28;5.63;;;1.40;;
37677;SDS011;23517;50.390;8.616;2023-12-29T06:52:55;6.28;;;1.20;;
37677;SDS011;23517;50.390;8.616;2023-12-29T06:55:22;5.88;;;1.20;;
37677;SDS011;23517;50.390;8.616;2023-12-29T06:57:51;5.05;;;1.17;;
37677;SDS011;23517;50.390;8.616;2023-12-29T07:00:18;9.02;;;1.42;;
37677;SDS011;23517;50.390;8.616;2023-12-29T07:02:45;5.13;;;1.33;;
37677;SDS011;23517;50.390;8.616;2023-12-29T07:05:12;3.33;;;1.27;;
37677;SDS011;23517;50.390;8.616;2023-12-29T07:07:39;3.85;;;1.02;;
37677;SDS011;23517;50.390;8.616;2023-12-29T07:10:06;3.70;;;1.40;;
37677;SDS011;23517;50.390;8.616;2023-12-29T07:12:33;2.83;;;1.30;;
37677;SDS011;23517;50.390;8.616;2023-12-29T07:15:00;3.63;;;1.25;;
37677;SDS011;23517;50.390;8.616;2023-12-29T07:17:26;8.85;;;2.45;;
37677;SDS011;23517;50.390;8.616;2023-12-29T07:19:54;5.43;;;1.92;;
37677;SDS011;23517;50.390;8.616;2023-12-29T07:22:21;4.70;;;1.80;;
37677;SDS011;23517;50.390;8.616;2023-12-29T07:24:48;3.00;;;1.20;;
37677;SDS011;23517;50.390;8.616;2023-12-29T07:27:14;2.65;;;1.30;;
37677;SDS011;23517;50.390;8.616;2023-12-29T07:29:41;3.03;;;1.35;;
37677;SDS011;23517;50.390;8.616;2023-12-29T07:32:08;3.95;;;1.35;;
37677;SDS011;23517;50.390;8.616;2023-12-29T07:34:35;3.30;;;1.17;;
37677;SDS011;23517;50.390;8.616;2023-12-29T07:37:02;4.13;;;1.48;;
37677;SDS011;23517;50.390;8.616;2023-12-29T07:39:29;2.90;;;1.30;;
37677;SDS011;23517;50.390;8.616;2023-12-29T07:41:56;5.35;;;1.20;;
37677;SDS011;23517;50.390;8.616;2023-12-29T07:44:22;6.32;;;1.48;;
37677;SDS011;23517;50.390;8.616;2023-12-29T07:46:49;2.63;;;1.10;;
37677;SDS011;23517;50.390;8.616;2023-12-29T07:49:16;3.95;;;1.50;;
37677;SDS011;23517;50.390;8.616;2023-12-29T07:51:46;2.50;;;1.20;;
37677;SDS011;23517;50.390;8.616;2023-12-29T07:54:13;2.20;;;1.00;;
37677;SDS011;23517;50.390;8.616;2023-12-29T07:56:40;3.65;;;1.20;;
37677;SDS011;23517;50.390;8.616;2023-12-29T07:59:07;5.00;;;1.20;;
37677;SDS011;23517;50.390;8.616;2023-12-29T08:01:33;3.22;;;1.10;;
37677;SDS011;23517;50.390;8.616;2023-12-29T08:04:00;6.82;;;1.50;;
37677;SDS011;23517;50.390;8.616;2023-12-29T08:06:27;6.03;;;1.63;;
37677;SDS011;23517;50.390;8.616;2023-12-29T08:08:54;2.08;;;1.17;;
37677;SDS011;23517;50.390;8.616;2023-12-29T08:11:20;3.85;;;0.93;;
37677;SDS011;23517;50.390;8.616;2023-12-29T08:13:48;3.20;;;1.30;;
37677;SDS011;23517;50.390;8.616;2023-12-29T08:16:18;1.10;;;0.90;;
37677;SDS011;23517;50.390;8.616;2023-12-29T08:18:46;3.70;;;1.08;;
37677;SDS011;23517;50.390;8.616;2023-12-29T08:21:18;3.42;;;0.98;;
37677;SDS011;23517;50.390;8.616;2023-12-29T08:23:48;3.03;;;1.20;;
37677;SDS011;23517;50.390;8.616;2023-12-29T08:26:15;2.97;;;0.90;;
37677;SDS011;23517;50.390;8.616;2023-12-29T08:28:42;2.67;;;0.88;;
37677;SDS011;23517;50.390;8.616;2023-12-29T08:31:09;3.22;;;1.10;;
37677;SDS011;23517;50.390;8.616;2023-12-29T08:33:36;3.15;;;1.20;;
37677;SDS011;23517;50.390;8.616;2023-12-29T08:36:03;2.95;;;1.15;;
37677;SDS011;23517;50.390;8.616;2023-12-29T08:38:31;4.80;;;1.40;;
37677;SDS011;23517;50.390;8.616;2023-12-29T08:40:58;5.75;;;1.92;;
37677;SDS011;23517;50.390;8.616;2023-12-29T08:43:25;5.15;;;1.50;;
37677;SDS011;23517;50.390;8.616;2023-12-29T08:45:52;3.60;;;1.40;;
37677;SDS011;23517;50.390;8.616;2023-12-29T08:48:19;4.20;;;1.20;;
37677;SDS011;23517;50.390;8.616;2023-12-29T08:50:46;3.53;;;1.20;;
37677;SDS011;23517;50.390;8.616;2023-12-29T08:53:13;3.67;;;1.40;;
37677;SDS011;23517;50.390;8.616;2023-12-29T08:55:40;7.20;;;2.30;;
37677;SDS011;23517;50.390;8.616;2023-12-29T08:58:07;5.00;;;1.38;;
37677;SDS011;23517;50.390;8.616;2023-12-29T09:00:34;6.15;;;1.88;;
37677;SDS011;23517;50.390;8.616;2023-12-29T09:03:01;1.85;;;1.08;;
37677;SDS011;23517;50.390;8.616;2023-12-29T09:05:27;5.22;;;1.90;;
37677;SDS011;23517;50.390;8.616;2023-12-29T09:07:54;3.00;;;1.02;;
37677;SDS011;23517;50.390;8.616;2023-12-29T09:10:21;3.63;;;1.05;;
37677;SDS011;23517;50.390;8.616;2023-12-29T09:12:49;3.50;;;1.70;;
37677;SDS011;23517;50.390;8.616;2023-12-29T09:15:16;2.65;;;1.45;;
37677;SDS011;23517;50.390;8.616;2023-12-29T09:17:43;5.68;;;1.70;;
37677;SDS011;23517;50.390;8.616;2023-12-29T09:20:10;2.80;;;1.20;;
37677;SDS011;23517;50.390;8.616;2023-12-29T09:22:38;2.90;;;1.10;;
37677;SDS011;23517;50.390;8.616;2023-12-29T09:25:05;1.33;;;0.82;;
37677;SDS011;23517;50.390;8.616;2023-12-29T09:27:32;3.10;;;1.40;;
37677;SDS011;23517;50.390;8.616;2023-12-29T09:29:59;4.18;;;0.85;;
37677;SDS011;23517;50.390;8.616;2023-12-29T09:32:25;2.70;;;1.13;;
37677;SDS011;23517;50.390;8.616;2023-12-29T09:34:52;1.90;;;0.93;;
37677;SDS011;23517;50.390;8.616;2023-12-29T09:37:19;1.33;;;1.00;;
37677;SDS011;23517;50.390;8.616;2023-12-29T09:39:45;2.92;;;0.90;;
37677;SDS011;23517;50.390;8.616;2023-12-29T09:42:13;2.67;;;1.23;;
37677;SDS011;23517;50.390;8.616;2023-12-29T09:44:50;2.72;;;0.93;;
37677;SDS011;23517;50.390;8.616;2023-12-29T09:47:22;6.60;;;0.90;;
37677;SDS011;23517;50.390;8.616;2023-12-29T09:49:52;3.67;;;1.00;;
37677;SDS011;23517;50.390;8.616;2023-12-29T09:52:21;2.92;;;0.93;;
37677;SDS011;23517;50.390;8.616;2023-12-29T09:54:51;5.20;;;1.08;;
37677;SDS011;23517;50.390;8.616;2023-12-29T09:57:19;2.75;;;1.13;;
37677;SDS011;23517;50.390;8.616;2023-12-29T09:59:48;3.30;;;1.17;;
37677;SDS011;23517;50.390;8.616;2023-12-29T10:02:19;2.40;;;1.00;;
37677;SDS011;23517;50.390;8.616;2023-12-29T10:04:48;1.40;;;0.90;;
37677;SDS011;23517;50.390;8.616;2023-12-29T10:07:25;3.22;;;1.00;;
37677;SDS011;23517;50.390;8.616;2023-12-29T10:09:54;2.28;;;1.08;;
37677;SDS011;23517;50.390;8.616;2023-12-29T10:12:24;3.63;;;1.10;;
37677;SDS011;23517;50.390;8.616;2023-12-29T10:15:01;3.28;;;1.23;;
37677;SDS011;23517;50.390;8.616;2023-12-29T10:20:23;4.50;;;0.95;;
37677;SDS011;23517;50.390;8.616;2023-12-29T10:23:16;4.30;;;1.17;;
37677;SDS011;23517;50.390;8.616;2023-12-29T10:25:47;6.60;;;1.38;;
37677;SDS011;23517;50.390;8.616;2023-12-29T10:28:15;6.50;;;0.98;;
37677;SDS011;23517;50.390;8.616;2023-12-29T10:30:43;5.35;;;0.98;;
37677;SDS011;23517;50.390;8.616;2023-12-29T10:33:10;4.57;;;1.20;;
37677;SDS011;23517;50.390;8.616;2023-12-29T10:35:56;4.40;;;1.20;;
37677;SDS011;23517;50.390;8.616;2023-12-29T10:38:32;2.33;;;0.90;;
37677;SDS011;23517;50.390;8.616;2023-12-29T10:43:46;3.75;;;0.95;;
37677;SDS011;23517;50.390;8.616;2023-12-29T10:46:13;3.20;;;0.93;;
37677;SDS011;23517;50.390;8.616;2023-12-29T10:48:41;5.63;;;1.08;;
37677;SDS011;23517;50.390;8.616;2023-12-29T10:51:07;4.28;;;1.27;;
37677;SDS011;23517;50.390;8.616;2023-12-29T10:53:36;4.65;;;0.95;;
37677;SDS011;23517;50.390;8.616;2023-12-29T10:56:16;5.32;;;1.10;;
37677;SDS011;23517;50.390;8.616;2023-12-29T10:58:56;2.80;;;0.93;;
37677;SDS011;23517;50.390;8.616;2023-12-29T11:01:31;4.50;;;0.85;;
37677;SDS011;23517;50.390;8.616;2023-12-29T11:04:01;2.15;;;0.90;;
37677;SDS011;23517;50.390;8.616;2023-12-29T11:06:30;4.75;;;1.15;;
37677;SDS011;23517;50.390;8.616;2023-12-29T11:09:07;2.83;;;0.90;;
37677;SDS011;23517;50.390;8.616;2023-12-29T11:11:35;2.10;;;0.82;;
37677;SDS011;23517;50.390;8.616;2023-12-29T11:14:02;3.30;;;0.90;;
37677;SDS011;23517;50.390;8.616;2023-12-29T11:16:32;2.15;;;0.60;;
37677;SDS011;23517;50.390;8.616;2023-12-29T11:18:59;2.95;;;0.80;;
37677;SDS011;23517;50.390;8.616;2023-12-29T11:21:29;1.15;;;0.70;;
37677;SDS011;23517;50.390;8.616;2023-12-29T11:23:57;4.32;;;1.00;;
37677;SDS011;23517;50.390;8.616;2023-12-29T11:26:24;1.80;;;0.82;;
37677;SDS011;23517;50.390;8.616;2023-12-29T11:28:53;0.98;;;0.60;;
37677;SDS011;23517;50.390;8.616;2023-12-29T11:31:20;1.63;;;0.60;;
37677;SDS011;23517;50.390;8.616;2023-12-29T11:33:57;3.13;;;0.70;;
37677;SDS011;23517;50.390;8.616;2023-12-29T11:36:33;2.10;;;0.80;;
37677;SDS011;23517;50.390;8.616;2023-12-29T11:42:13;1.13;;;0.77;;
37677;SDS011;23517;50.390;8.616;2023-12-29T11:44:46;1.58;;;0.60;;
37677;SDS011;23517;50.390;8.616;2023-12-29T11:47:36;1.23;;;0.60;;
37677;SDS011;23517;50.390;8.616;2023-12-29T11:50:04;0.50;;;0.50;;
37677;SDS011;23517;50.390;8.616;2023-12-29T11:52:35;0.57;;;0.40;;
37677;SDS011;23517;50.390;8.616;2023-12-29T11:55:15;2.92;;;0.90;;
37677;SDS011;23517;50.390;8.616;2023-12-29T11:57:46;1.00;;;0.80;;
37677;SDS011;23517;50.390;8.616;2023-12-29T12:00:13;2.40;;;0.77;;
37677;SDS011;23517;50.390;8.616;2023-12-29T12:02:40;2.45;;;0.70;;
37677;SDS011;23517;50.390;8.616;2023-12-29T12:05:10;2.65;;;0.98;;
37677;SDS011;23517;50.390;8.616;2023-12-29T12:12:47;1.38;;;0.55;;
37677;SDS011;23517;50.390;8.616;2023-12-29T12:17:59;2.65;;;1.00;;
37677;SDS011;23517;50.390;8.616;2023-12-29T12:20:34;1.02;;;0.50;;
37677;SDS011;23517;50.390;8.616;2023-12-29T12:23:02;0.68;;;0.32;;
37677;SDS011;23517;50.390;8.616;2023-12-29T12:25:39;1.13;;;0.40;;
37677;SDS011;23517;50.390;8.616;2023-12-29T12:28:06;0.70;;;0.35;;
37677;SDS011;23517;50.390;8.616;2023-12-29T12:30:35;1.38;;;0.50;;
37677;SDS011;23517;50.390;8.616;2023-12-29T12:33:03;0.63;;;0.45;;
37677;SDS011;23517;50.390;8.616;2023-12-29T12:35:32;3.28;;;1.50;;
37677;SDS011;23517;50.390;8.616;2023-12-29T12:40:50;4.13;;;2.22;;
37677;SDS011;23517;50.390;8.616;2023-12-29T12:43:17;7.93;;;3.83;;
37677;SDS011;23517;50.390;8.616;2023-12-29T12:45:48;3.05;;;1.65;;
37677;SDS011;23517;50.390;8.616;2023-12-29T12:48:24;1.83;;;0.70;;
37677;SDS011;23517;50.390;8.616;2023-12-29T12:51:12;1.75;;;0.60;;
37677;SDS011;23517;50.390;8.616;2023-12-29T12:53:40;1.15;;;0.50;;
37677;SDS011;23517;50.390;8.616;2023-12-29T12:56:08;2.33;;;0.65;;
37677;SDS011;23517;50.390;8.616;2023-12-29T12:58:35;3.80;;;1.90;;
37677;SDS011;23517;50.390;8.616;2023-12-29T13:01:02;2.00;;;1.33;;
37677;SDS011;23517;50.390;8.616;2023-12-29T13:03:30;0.88;;;0.60;;
37677;SDS011;23517;50.390;8.616;2023-12-29T13:05:59;0.85;;;0.68;;
37677;SDS011;23517;50.390;8.616;2023-12-29T13:08:26;0.98;;;0.55;;
37677;SDS011;23517;50.390;8.616;2023-12-29T13:11:03;2.00;;;0.70;;
37677;SDS011;23517;50.390;8.616;2023-12-29T13:13:40;2.22;;;0.60;;
37677;SDS011;23517;50.390;8.616;2023-12-29T13:16:09;0.77;;;0.50;;
37677;SDS011;23517;50.390;8.616;2023-12-29T13:18:36;2.00;;;0.40;;
37677;SDS011;23517;50.390;8.616;2023-12-29T13:21:03;2.33;;;0.90;;
37677;SDS011;23517;50.390;8.616;2023-12-29T13:23:30;2.45;;;0.50;;
37677;SDS011;23517;50.390;8.616;2023-12-29T13:25:59;1.40;;;0.40;;
37677;SDS011;23517;50.390;8.616;2023-12-29T13:28:28;1.05;;;0.50;;
37677;SDS011;23517;50.390;8.616;2023-12-29T13:30:57;1.70;;;0.50;;
37677;SDS011;23517;50.390;8.616;2023-12-29T13:33:26;0.40;;;0.40;;
37677;SDS011;23517;50.390;8.616;2023-12-29T13:36:08;1.45;;;0.40;;
37677;SDS011;23517;50.390;8.616;2023-12-29T13:38:56;1.05;;;0.40;;
37677;SDS011;23517;50.390;8.616;2023-12-29T13:41:33;1.65;;;0.60;;
37677;SDS011;23517;50.390;8.616;2023-12-29T13:44:01;0.50;;;0.50;;
37677;SDS011;23517;50.390;8.616;2023-12-29T13:46:29;2.33;;;0.40;;
37677;SDS011;23517;50.390;8.616;2023-12-29T13:48:56;1.02;;;0.50;;
37677;SDS011;23517;50.390;8.616;2023-12-29T13:51:24;0.98;;;0.40;;
37677;SDS011;23517;50.390;8.616;2023-12-29T13:54:01;3.75;;;0.60;;
37677;SDS011;23517;50.390;8.616;2023-12-29T13:56:29;0.60;;;0.40;;
37677;SDS011;23517;50.390;8.616;2023-12-29T13:58:56;0.65;;;0.38;;
37677;SDS011;23517;50.390;8.616;2023-12-29T14:01:23;0.43;;;0.30;;
37677;SDS011;23517;50.390;8.616;2023-12-29T14:03:50;1.05;;;0.50;;
37677;SDS011;23517;50.390;8.616;2023-12-29T14:06:35;0.90;;;0.47;;
37677;SDS011;23517;50.390;8.616;2023-12-29T14:09:14;0.35;;;0.28;;
37677;SDS011;23517;50.390;8.616;2023-12-29T14:11:47;0.60;;;0.40;;
37677;SDS011;23517;50.390;8.616;2023-12-29T14:14:21;3.42;;;0.50;;
37677;SDS011;23517;50.390;8.616;2023-12-29T14:16:49;1.35;;;0.47;;
37677;SDS011;23517;50.390;8.616;2023-12-29T14:19:18;1.90;;;0.68;;
37677;SDS011;23517;50.390;8.616;2023-12-29T14:21:46;2.47;;;0.60;;
37677;SDS011;23517;50.390;8.616;2023-12-29T14:24:20;3.17;;;0.60;;
37677;SDS011;23517;50.390;8.616;2023-12-29T14:29:25;4.47;;;0.80;;
37677;SDS011;23517;50.390;8.616;2023-12-29T14:31:53;1.95;;;0.70;;
37677;SDS011;23517;50.390;8.616;2023-12-29T14:34:22;1.85;;;0.55;;
37677;SDS011;23517;50.390;8.616;2023-12-29T14:36:49;2.00;;;0.50;;
37677;SDS011;23517;50.390;8.616;2023-12-29T14:39:16;3.97;;;0.82;;
37677;SDS011;23517;50.390;8.616;2023-12-29T14:41:42;1.80;;;0.70;;
37677;SDS011;23517;50.390;8.616;2023-12-29T14:44:09;1.48;;;0.60;;
37677;SDS011;23517;50.390;8.616;2023-12-29T14:46:37;1.55;;;0.50;;
37677;SDS011;23517;50.390;8.616;2023-12-29T14:49:05;2.58;;;0.60;;
37677;SDS011;23517;50.390;8.616;2023-12-29T14:51:33;1.75;;;0.60;;
37677;SDS011;23517;50.390;8.616;2023-12-29T14:54:00;0.98;;;0.40;;
37677;SDS011;23517;50.390;8.616;2023-12-29T14:56:29;0.75;;;0.50;;
37677;SDS011;23517;50.390;8.616;2023-12-29T14:58:56;0.88;;;0.38;;
37677;SDS011;23517;50.390;8.616;2023-12-29T15:01:22;0.85;;;0.65;;
37677;SDS011;23517;50.390;8.616;2023-12-29T15:03:49;1.98;;;0.55;;
37677;SDS011;23517;50.390;8.616;2023-12-29T15:06:16;0.80;;;0.52;;
37677;SDS011;23517;50.390;8.616;2023-12-29T15:08:43;1.33;;;0.50;;
37677;SDS011;23517;50.390;8.616;2023-12-29T15:11:10;3.20;;;0.70;;
37677;SDS011;23517;50.390;8.616;2023-12-29T15:13:36;0.40;;;0.40;;
37677;SDS011;23517;50.390;8.616;2023-12-29T15:16:04;2.35;;;0.73;;
37677;SDS011;23517;50.390;8.616;2023-12-29T15:18:33;1.17;;;0.55;;
37677;SDS011;23517;50.390;8.616;2023-12-29T15:21:00;0.50;;;0.50;;
37677;SDS011;23517;50.390;8.616;2023-12-29T15:23:27;4.30;;;0.45;;